Terminal Aerodrome Forecast
Issued by NWS Sterling, VA

Current Version | Previous Version | Graphics & Text | Print | Product List | Glossary Off
Versions: 1 2 3 4 5 6 7 8 9 10 11 12 13 14 15 16 17 18 19 20 21 22

000
FTUS41 KLWX 281700
TAFDCA
TAF
KDCA 281736Z 2818/2918 17004KT P6SM SCT060 BKN110
     FM282100 31005KT 5SM -SHRA OVC060
     FM290000 35004KT P6SM OVC050=

USA.gov is the U.S. government's official web portal to all federal, state and local government web resources and services.